Time;durP1;ratioP1;P1;durP2;ratioP2;P2;SDS_P1;SDS_P2;PMS_P1;PMS_P2;Temp;Humidity;BMP_temperature;BMP_pressure;BME280_temperature;BME280_humidity;BME280_pressure;Samples;Min_cycle;Max_cycle;Signal;HPM_P1;HPM_P2
2021/12/06 00:02:07;;;;;;;40.47;25.20;;;;;;;2.35;100.00;100756.13;4982906;28;20817;-58
2021/12/06 00:04:37;;;;;;;37.90;22.73;;;;;;;1.62;100.00;100745.88;4984530;28;20247;-56
2021/12/06 00:07:08;;;;;;;37.40;22.80;;;;;;;2.54;100.00;100757.59;4988971;28;20278;-57
2021/12/06 00:09:35;;;;;;;35.53;21.43;;;;;;;2.14;100.00;100757.97;4985375;28;20288;-57
2021/12/06 00:12:04;;;;;;;30.17;21.80;;;;;;;2.25;100.00;100748.88;4981878;28;20325;-56
2021/12/06 00:14:34;;;;;;;33.43;22.77;;;;;;;2.32;100.00;100744.78;4974801;28;20246;-57
2021/12/06 00:17:02;;;;;;;32.80;21.10;;;;;;;2.53;100.00;100754.97;4980183;28;20884;-56
2021/12/06 00:19:29;;;;;;;36.10;22.93;;;;;;;2.58;100.00;100743.88;4985716;28;20375;-57
2021/12/06 00:21:57;;;;;;;35.10;22.23;;;;;;;2.30;100.00;100742.13;4986500;28;20334;-56
2021/12/06 00:24:24;;;;;;;33.90;20.90;;;;;;;2.43;100.00;100752.91;4988085;28;20267;-57
2021/12/06 00:26:50;;;;;;;35.07;20.80;;;;;;;2.19;100.00;100763.34;4981902;28;20311;-56
2021/12/06 00:29:18;;;;;;;34.07;23.13;;;;;;;1.91;100.00;100752.91;4982993;28;20253;-58
2021/12/06 00:31:45;;;;;;;37.73;22.60;;;;;;;2.22;100.00;100759.13;4984063;28;20244;-57
2021/12/06 00:34:15;;;;;;;34.90;21.90;;;;;;;1.80;100.00;100756.84;4982602;28;21103;-56
2021/12/06 00:36:51;;;;;;;34.43;22.77;;;;;;;2.23;100.00;100758.28;4982376;28;20239;-55
2021/12/06 00:39:17;;;;;;;29.87;21.33;;;;;;;1.83;100.00;100753.50;4983540;28;20239;-55
2021/12/06 00:41:43;;;;;;;32.27;20.83;;;;;;;2.42;100.00;100761.47;4979315;28;20328;-57
2021/12/06 00:44:10;;;;;;;31.53;22.70;;;;;;;2.37;100.00;100762.22;4979241;28;20260;-57
2021/12/06 00:46:38;;;;;;;33.87;21.77;;;;;;;2.19;100.00;100763.34;4978646;28;20260;-57
2021/12/06 00:49:05;;;;;;;37.03;23.83;;;;;;;1.90;100.00;100777.06;4982783;28;20383;-57
2021/12/06 00:51:31;;;;;;;32.30;20.73;;;;;;;2.52;100.00;100779.97;4981080;28;20324;-56
2021/12/06 00:53:58;;;;;;;32.53;21.53;;;;;;;2.39;100.00;100773.53;4984335;28;20687;-56
2021/12/06 00:56:24;;;;;;;30.30;21.33;;;;;;;2.43;100.00;100781.41;4985200;28;20240;-57
2021/12/06 00:58:50;;;;;;;34.90;22.37;;;;;;;2.13;100.00;100783.00;4985631;28;20805;-58
2021/12/06 01:01:17;;;;;;;30.90;20.53;;;;;;;2.50;100.00;100791.13;4982998;28;20329;-57
2021/12/06 01:03:45;;;;;;;31.93;20.43;;;;;;;2.48;100.00;100787.59;4985374;28;20290;-57
2021/12/06 01:06:12;;;;;;;28.63;20.47;;;;;;;2.21;100.00;100792.75;4985001;28;20272;-56
2021/12/06 01:08:40;;;;;;;31.33;20.00;;;;;;;2.57;100.00;100801.75;4982941;28;20315;-56
2021/12/06 01:11:07;;;;;;;28.93;19.87;;;;;;;2.59;100.00;100809.56;4981064;28;20261;-56
2021/12/06 01:13:34;;;;;;;27.93;18.90;;;;;;;2.67;100.00;100802.94;4984081;28;20232;-55
2021/12/06 01:16:00;;;;;;;29.20;20.47;;;;;;;2.45;99.05;100808.22;4981297;28;20325;-58
2021/12/06 01:18:27;;;;;;;29.43;19.60;;;;;;;2.54;100.00;100816.31;4987413;28;20302;-57
2021/12/06 01:21:03;;;;;;;29.73;19.80;;;;;;;2.19;100.00;100831.56;4983003;28;20801;-57
2021/12/06 01:23:42;;;;;;;29.00;19.77;;;;;;;2.61;100.00;100832.09;4984330;28;20312;-57
2021/12/06 01:26:27;;;;;;;26.70;18.40;;;;;;;2.53;100.00;100843.06;4979679;28;21109;-56
2021/12/06 01:29:13;;;;;;;27.27;18.57;;;;;;;1.94;100.00;100850.53;4984600;28;20319;-57
2021/12/06 01:31:48;;;;;;;26.83;18.70;;;;;;;2.31;100.00;100850.09;4975243;28;20240;-57
2021/12/06 01:39:41;;;;;;;28.47;19.57;;;;;;;2.09;100.00;100857.97;4983332;28;20269;-56
2021/12/06 01:42:08;;;;;;;27.73;19.50;;;;;;;2.13;100.00;100857.22;4981703;28;20271;-56
2021/12/06 01:44:36;;;;;;;29.77;18.67;;;;;;;2.41;100.00;100853.00;4984859;28;20295;-56
2021/12/06 01:47:05;;;;;;;25.30;19.07;;;;;;;2.38;100.00;100859.81;4983262;28;20327;-57
2021/12/06 01:49:35;;;;;;;23.83;17.10;;;;;;;2.81;100.00;100856.09;4977681;28;20307;-57
2021/12/06 01:52:06;;;;;;;22.90;16.27;;;;;;;2.79;98.81;100860.34;4981729;28;20284;-57
2021/12/06 01:54:32;;;;;;;25.13;17.63;;;;;;;2.43;97.51;100866.91;4978558;28;21006;-57
2021/12/06 01:56:58;;;;;;;25.97;17.77;;;;;;;2.50;100.00;100863.69;4981031;28;20346;-56
2021/12/06 01:59:26;;;;;;;23.93;16.40;;;;;;;2.59;98.89;100869.16;4982478;28;20714;-59
2021/12/06 02:01:54;;;;;;;25.33;16.77;;;;;;;2.59;100.00;100874.34;4980118;28;20705;-57
2021/12/06 02:04:21;;;;;;;26.17;16.87;;;;;;;2.15;99.00;100871.13;4980603;28;20286;-59
2021/12/06 02:06:47;;;;;;;24.13;17.37;;;;;;;2.24;97.71;100865.38;4983561;28;20702;-57
2021/12/06 02:09:17;;;;;;;23.03;16.20;;;;;;;2.14;98.59;100865.06;4983095;28;20236;-57
2021/12/06 02:11:44;;;;;;;23.73;17.60;;;;;;;2.13;96.96;100870.19;4985731;28;20236;-59
2021/12/06 02:14:24;;;;;;;23.17;16.67;;;;;;;2.32;99.38;100869.13;4986084;28;20236;-58
2021/12/06 02:17:04;;;;;;;22.70;17.27;;;;;;;2.16;99.11;100867.69;4980567;28;20236;-59
2021/12/06 02:19:34;;;;;;;22.33;17.83;;;;;;;1.94;98.46;100870.38;4979896;28;20650;-59
2021/12/06 02:22:03;;;;;;;25.47;17.67;;;;;;;1.80;98.96;100857.81;4981880;28;20237;-58
2021/12/06 02:24:32;;;;;;;23.43;17.83;;;;;;;1.61;99.02;100860.53;4983067;28;20232;-58
2021/12/06 02:26:59;;;;;;;25.00;17.70;;;;;;;1.35;99.91;100855.25;4986352;28;20243;-58
2021/12/06 02:29:25;;;;;;;25.80;17.13;;;;;;;1.25;100.00;100866.06;4984442;28;20355;-58
2021/12/06 02:31:52;;;;;;;27.27;17.53;;;;;;;1.16;100.00;100870.91;4982510;28;20549;-59
2021/12/06 02:34:19;;;;;;;24.10;18.63;;;;;;;1.17;100.00;100865.78;4982840;28;20236;-59
2021/12/06 02:36:46;;;;;;;27.17;19.00;;;;;;;1.54;100.00;100864.59;4988555;28;20240;-58
2021/12/06 02:39:20;;;;;;;27.03;18.37;;;;;;;1.48;100.00;100873.84;4987593;28;20241;-59
2021/12/06 02:41:48;;;;;;;26.50;18.33;;;;;;;1.43;100.00;100878.84;4982715;28;20244;-59
2021/12/06 02:44:14;;;;;;;25.20;19.20;;;;;;;1.37;100.00;100884.66;4989821;28;20619;-59
2021/12/06 02:46:41;;;;;;;29.17;17.70;;;;;;;1.50;100.00;100880.81;4994779;28;20609;-59
2021/12/06 02:49:07;;;;;;;24.23;17.37;;;;;;;1.73;100.00;100881.69;4989385;28;20989;-58
2021/12/06 02:51:34;;;;;;;30.77;20.10;;;;;;;2.00;100.00;100881.84;4986703;28;20232;-59
2021/12/06 02:54:00;;;;;;;27.43;19.23;;;;;;;1.84;99.55;100880.38;4987940;28;20233;-58
2021/12/06 02:56:33;;;;;;;25.53;20.07;;;;;;;1.61;100.00;100891.56;4993037;28;20272;-59
2021/12/06 02:59:02;;;;;;;29.17;20.00;;;;;;;1.83;100.00;100898.47;4986024;28;20245;-57
2021/12/06 03:01:33;;;;;;;32.73;22.77;;;;;;;1.25;100.00;100898.81;4984745;28;20268;-59
2021/12/06 03:04:01;;;;;;;30.53;21.80;;;;;;;1.02;100.00;100903.06;4993448;28;20728;-58
2021/12/06 03:06:28;;;;;;;30.23;23.07;;;;;;;0.84;100.00;100898.94;4987605;28;20240;-60
2021/12/06 03:09:03;;;;;;;30.00;20.87;;;;;;;0.76;100.00;100909.78;4993776;28;20241;-60
2021/12/06 03:11:34;;;;;;;34.57;23.13;;;;;;;0.66;100.00;100908.50;4986548;28;20763;-58
2021/12/06 03:14:01;;;;;;;38.37;24.47;;;;;;;0.63;100.00;100900.63;4987635;28;20259;-59
2021/12/06 03:16:28;;;;;;;35.27;23.07;;;;;;;0.98;100.00;100915.00;4992706;28;20236;-59
2021/12/06 03:18:55;;;;;;;40.13;25.80;;;;;;;0.85;100.00;100903.28;4988529;28;20761;-58
2021/12/06 03:21:22;;;;;;;35.50;23.63;;;;;;;0.75;100.00;100914.06;4990052;28;20240;-57
2021/12/06 03:23:49;;;;;;;34.23;23.77;;;;;;;0.63;100.00;100911.88;4988814;28;20229;-57
2021/12/06 03:26:16;;;;;;;36.40;23.37;;;;;;;0.65;100.00;100915.38;4991890;28;20319;-58
2021/12/06 03:28:45;;;;;;;34.07;24.70;;;;;;;0.88;100.00;100913.75;4986020;28;20773;-58
2021/12/06 03:31:12;;;;;;;35.00;23.37;;;;;;;0.82;100.00;100923.84;4990050;28;20400;-58
2021/12/06 03:33:41;;;;;;;35.63;23.43;;;;;;;0.82;100.00;100931.59;4994328;28;20255;-59
2021/12/06 03:36:09;;;;;;;32.77;23.37;;;;;;;0.78;100.00;100924.53;4996304;28;20879;-58
2021/12/06 03:38:36;;;;;;;37.77;24.27;;;;;;;0.80;100.00;100924.59;4983644;28;20629;-58
2021/12/06 03:41:02;;;;;;;36.57;23.97;;;;;;;0.78;100.00;100934.00;4989728;28;20717;-57
2021/12/06 03:43:29;;;;;;;34.60;23.53;;;;;;;0.89;100.00;100931.03;4995166;28;20240;-58
2021/12/06 03:45:57;;;;;;;33.10;23.80;;;;;;;1.81;100.00;100939.81;4985193;28;20563;-57
2021/12/06 03:48:23;;;;;;;33.43;24.10;;;;;;;1.72;100.00;100936.88;4992716;28;20655;-59
2021/12/06 03:50:49;;;;;;;32.90;23.97;;;;;;;1.54;100.00;100951.69;4992574;28;20718;-58
2021/12/06 03:53:17;;;;;;;33.83;20.97;;;;;;;1.74;100.00;100955.94;4989822;28;20293;-58
2021/12/06 03:55:43;;;;;;;33.00;23.20;;;;;;;1.43;100.00;100953.84;4989857;28;20796;-58
2021/12/06 03:58:10;;;;;;;34.03;23.20;;;;;;;1.24;100.00;100953.97;4985446;28;20288;-57
2021/12/06 04:00:36;;;;;;;33.20;23.90;;;;;;;1.13;100.00;100961.28;4979734;28;20248;-57
2021/12/06 04:03:05;;;;;;;31.87;23.80;;;;;;;0.93;100.00;100958.75;4981585;28;20256;-57
2021/12/06 04:05:31;;;;;;;36.23;26.33;;;;;;;0.80;100.00;100956.47;4980311;28;20763;-58
2021/12/06 04:07:58;;;;;;;33.60;25.57;;;;;;;0.85;100.00;100959.28;4979990;28;20298;-58
2021/12/06 04:10:25;;;;;;;36.83;22.93;;;;;;;0.85;100.00;100967.91;4990978;28;20327;-58
2021/12/06 04:12:52;;;;;;;35.33;23.80;;;;;;;0.81;100.00;100968.59;4986172;28;20576;-58
2021/12/06 04:15:18;;;;;;;37.03;25.27;;;;;;;0.73;100.00;100972.53;4994491;28;20252;-58
2021/12/06 04:17:45;;;;;;;35.37;23.83;;;;;;;0.63;100.00;100979.03;4985707;28;20237;-58
2021/12/06 04:20:13;;;;;;;38.20;25.80;;;;;;;0.52;100.00;100981.97;4984075;28;20260;-59
2021/12/06 04:22:40;;;;;;;34.27;24.13;;;;;;;0.50;100.00;100986.19;4990877;28;20241;-57
2021/12/06 04:25:09;;;;;;;34.53;23.53;;;;;;;0.52;100.00;100990.59;4985899;28;20241;-58
2021/12/06 04:27:36;;;;;;;35.33;23.67;;;;;;;0.53;100.00;100999.22;4985749;28;20237;-58
2021/12/06 04:30:08;;;;;;;33.93;24.63;;;;;;;0.51;100.00;101000.88;4985669;28;20345;-58
2021/12/06 04:32:34;;;;;;;34.00;23.50;;;;;;;0.53;100.00;101004.38;4985300;28;20261;-59
2021/12/06 04:35:01;;;;;;;33.60;24.33;;;;;;;0.52;100.00;101002.63;4996180;28;20724;-59
2021/12/06 04:37:28;;;;;;;33.60;23.20;;;;;;;0.84;100.00;101011.75;4986582;28;20238;-58
2021/12/06 04:39:55;;;;;;;36.20;25.83;;;;;;;0.61;100.00;101003.91;4986594;28;20291;-58
2021/12/06 04:42:22;;;;;;;38.43;24.60;;;;;;;0.60;100.00;101011.63;4985785;28;20288;-59
2021/12/06 04:44:48;;;;;;;39.77;26.10;;;;;;;0.68;100.00;101011.13;4990785;28;20667;-58
2021/12/06 04:47:15;;;;;;;34.23;26.17;;;;;;;0.76;100.00;101008.84;5022886;22;20247;-56
2021/12/06 04:49:41;;;;;;;36.67;24.23;;;;;;;0.76;100.00;101015.72;5023437;28;20236;-55
2021/12/06 04:52:10;;;;;;;32.00;24.27;;;;;;;0.70;100.00;101024.09;5024860;28;20239;-56
2021/12/06 04:54:42;;;;;;;36.60;25.67;;;;;;;0.60;100.00;101027.13;5024539;28;20262;-55
2021/12/06 04:57:13;;;;;;;38.60;24.30;;;;;;;0.72;100.00;101027.63;5013939;28;20232;-54
2021/12/06 04:59:41;;;;;;;34.73;23.00;;;;;;;0.61;100.00;101026.28;5000212;28;20341;-55
2021/12/06 05:02:10;;;;;;;34.37;24.03;;;;;;;0.64;100.00;101029.00;5013561;28;20689;-57
2021/12/06 05:04:39;;;;;;;32.97;23.53;;;;;;;0.69;100.00;101024.91;5007145;28;20357;-55
2021/12/06 05:07:12;;;;;;;32.23;25.20;;;;;;;0.82;100.00;101032.38;5006210;28;20283;-55
2021/12/06 05:09:42;;;;;;;35.27;23.33;;;;;;;0.75;100.00;101025.19;5004818;28;20302;-54
2021/12/06 05:12:10;;;;;;;37.50;24.43;;;;;;;0.72;100.00;101027.63;5011142;28;20255;-54
2021/12/06 05:14:37;;;;;;;36.67;23.93;;;;;;;0.67;100.00;101037.78;5008796;28;20723;-55
2021/12/06 05:17:04;;;;;;;34.73;23.57;;;;;;;0.85;100.00;101036.81;5005607;28;20263;-54
2021/12/06 05:19:30;;;;;;;36.30;25.40;;;;;;;0.80;100.00;101039.16;5004726;28;20279;-55
2021/12/06 05:21:56;;;;;;;35.33;23.37;;;;;;;0.87;100.00;101045.50;5007065;28;20244;-55
2021/12/06 05:24:23;;;;;;;35.07;23.80;;;;;;;0.75;100.00;101058.78;5003293;28;20283;-54
2021/12/06 05:26:51;;;;;;;34.77;23.40;;;;;;;0.70;100.00;101053.41;5005932;28;20230;-57
2021/12/06 05:29:22;;;;;;;36.20;23.67;;;;;;;0.79;100.00;101054.63;5006218;28;20288;-54
2021/12/06 05:31:55;;;;;;;31.80;22.73;;;;;;;0.65;100.00;101061.78;5005195;28;20839;-54
2021/12/06 05:34:28;;;;;;;35.57;22.70;;;;;;;0.67;100.00;101054.97;5012974;28;20236;-54
2021/12/06 05:36:55;;;;;;;34.47;23.77;;;;;;;0.66;100.00;101058.38;5020162;28;20231;-57
2021/12/06 05:39:21;;;;;;;36.17;22.93;;;;;;;0.63;100.00;101063.38;5023058;28;20271;-56
2021/12/06 05:41:48;;;;;;;30.20;22.00;;;;;;;0.77;100.00;101064.88;5020746;28;20263;-56
2021/12/06 05:44:15;;;;;;;34.23;22.57;;;;;;;0.78;100.00;101069.25;5021346;28;20240;-57
2021/12/06 05:46:42;;;;;;;30.47;23.93;;;;;;;0.74;100.00;101067.34;5017348;28;20235;-56
2021/12/06 05:49:08;;;;;;;33.33;23.53;;;;;;;0.66;100.00;101068.69;5011027;28;20246;-55
2021/12/06 05:51:34;;;;;;;33.60;22.07;;;;;;;0.66;100.00;101073.88;5006071;28;20252;-54
2021/12/06 05:54:01;;;;;;;31.53;22.23;;;;;;;0.73;100.00;101073.31;5006037;28;20740;-55
2021/12/06 05:56:27;;;;;;;32.67;23.87;;;;;;;0.70;100.00;101074.09;5005141;28;20255;-56
2021/12/06 05:58:53;;;;;;;32.73;21.43;;;;;;;0.84;100.00;101085.03;5003933;28;20811;-57
2021/12/06 06:01:24;;;;;;;31.70;23.13;;;;;;;0.77;100.00;101093.31;5005078;28;20276;-55
2021/12/06 06:03:50;;;;;;;35.63;22.13;;;;;;;0.67;100.00;101091.16;5006307;28;20610;-56
2021/12/06 06:06:16;;;;;;;34.37;22.50;;;;;;;0.68;100.00;101098.09;5006419;28;20318;-55
2021/12/06 06:08:43;;;;;;;33.80;22.80;;;;;;;0.69;100.00;101098.13;5006319;28;20228;-55
2021/12/06 06:11:09;;;;;;;37.50;22.73;;;;;;;0.66;100.00;101099.69;5004604;28;20239;-54
2021/12/06 06:13:35;;;;;;;34.93;23.53;;;;;;;0.84;100.00;101097.03;5015289;28;20239;-53
2021/12/06 06:16:02;;;;;;;33.53;22.80;;;;;;;1.03;100.00;101091.88;5010905;28;20774;-54
2021/12/06 06:18:30;;;;;;;28.40;21.00;;;;;;;1.34;100.00;101096.66;5002433;28;20749;-57
2021/12/06 06:20:57;;;;;;;31.07;21.10;;;;;;;1.26;100.00;101100.59;5009738;28;20324;-52
2021/12/06 06:23:24;;;;;;;35.53;22.53;;;;;;;1.08;100.00;101115.34;5008552;28;20329;-54
2021/12/06 06:25:51;;;;;;;30.17;23.17;;;;;;;1.05;100.00;101112.59;5006070;28;20290;-57
2021/12/06 06:28:17;;;;;;;31.37;22.00;;;;;;;1.01;100.00;101116.75;5003861;28;20239;-54
2021/12/06 06:30:43;;;;;;;30.10;20.90;;;;;;;1.00;100.00;101121.88;5009994;28;20228;-54
2021/12/06 06:33:10;;;;;;;34.20;22.73;;;;;;;0.93;100.00;101121.59;5008579;28;20286;-52
2021/12/06 06:35:38;;;;;;;31.70;22.20;;;;;;;0.97;100.00;101125.22;5009568;28;20259;-54
2021/12/06 06:38:05;;;;;;;30.97;22.93;;;;;;;0.94;100.00;101120.78;5008131;28;20295;-52
2021/12/06 06:40:31;;;;;;;30.77;21.63;;;;;;;0.88;100.00;101123.13;5008227;28;20985;-56
2021/12/06 06:42:57;;;;;;;33.17;22.20;;;;;;;0.94;100.00;101133.69;5009791;28;20270;-53
2021/12/06 06:45:24;;;;;;;33.90;22.43;;;;;;;0.90;100.00;101141.25;5008329;28;20717;-54
2021/12/06 06:47:51;;;;;;;31.37;23.03;;;;;;;0.93;100.00;101139.69;5008782;28;20286;-52
2021/12/06 06:50:18;;;;;;;32.67;21.83;;;;;;;0.97;100.00;101145.00;5007186;28;20244;-55
2021/12/06 06:52:47;;;;;;;34.77;22.77;;;;;;;1.03;100.00;101140.13;5009525;28;20264;-53
2021/12/06 06:55:15;;;;;;;35.63;23.57;;;;;;;1.13;100.00;101150.06;5008713;28;20259;-53
2021/12/06 06:57:43;;;;;;;29.13;21.83;;;;;;;1.07;100.00;101149.78;5009116;28;20693;-55
2021/12/06 07:00:11;;;;;;;32.93;23.17;;;;;;;0.97;100.00;101152.75;5005070;28;20669;-56
2021/12/06 07:02:38;;;;;;;35.63;22.17;;;;;;;1.01;100.00;101152.97;5009466;28;20231;-54
2021/12/06 07:05:05;;;;;;;31.83;22.30;;;;;;;1.02;100.00;101156.41;5009056;28;20240;-55
2021/12/06 07:07:31;;;;;;;31.67;22.23;;;;;;;1.04;100.00;101160.84;5013688;28;20275;-54
2021/12/06 07:09:59;;;;;;;36.47;23.70;;;;;;;0.83;100.00;101160.78;5021862;28;20236;-56
2021/12/06 07:12:26;;;;;;;30.33;21.43;;;;;;;0.89;100.00;101158.47;5018236;28;20713;-53
2021/12/06 07:14:52;;;;;;;36.03;24.43;;;;;;;0.98;100.00;101154.53;5020873;28;20235;-55
2021/12/06 07:17:19;;;;;;;38.77;24.00;;;;;;;0.99;100.00;101156.31;5028190;28;20248;-57
2021/12/06 07:19:45;;;;;;;34.80;22.80;;;;;;;1.08;100.00;101154.13;5026207;28;20295;-57
2021/12/06 07:22:12;;;;;;;39.33;22.30;;;;;;;1.10;100.00;101155.97;5010512;28;21774;-55
2021/12/06 07:24:38;;;;;;;32.27;22.80;;;;;;;1.16;100.00;101161.41;5008571;28;20257;-55
2021/12/06 07:27:07;;;;;;;30.80;21.17;;;;;;;1.16;100.00;101164.00;5007517;28;20240;-54
2021/12/06 07:29:35;;;;;;;31.60;21.23;;;;;;;1.22;100.00;101165.06;5006851;28;20256;-55
2021/12/06 07:32:04;;;;;;;35.87;23.03;;;;;;;1.15;100.00;101171.66;5007836;28;20448;-54
2021/12/06 07:34:31;;;;;;;31.00;21.40;;;;;;;1.19;100.00;101165.81;5007882;28;20232;-54
2021/12/06 07:36:57;;;;;;;32.40;23.20;;;;;;;1.42;100.00;101167.69;5008880;28;20267;-54
2021/12/06 07:39:24;;;;;;;34.77;22.13;;;;;;;1.48;100.00;101161.03;5007636;28;20259;-54
2021/12/06 07:41:51;;;;;;;30.90;21.83;;;;;;;1.43;100.00;101161.69;5001410;28;20307;-54
2021/12/06 07:44:18;;;;;;;30.03;21.67;;;;;;;1.46;100.00;101165.25;5007898;28;20290;-53
2021/12/06 07:46:46;;;;;;;34.63;23.43;;;;;;;1.38;100.00;101168.38;5010009;28;20760;-52
2021/12/06 07:49:13;;;;;;;30.13;21.37;;;;;;;1.38;100.00;101167.50;5007480;28;20236;-54
2021/12/06 07:51:39;;;;;;;29.77;19.10;;;;;;;1.43;100.00;101173.75;5010045;28;20255;-55
2021/12/06 07:54:05;;;;;;;28.73;20.00;;;;;;;1.41;100.00;101172.81;5007746;28;20267;-52
2021/12/06 07:56:32;;;;;;;31.17;20.83;;;;;;;1.47;100.00;101175.66;5007833;28;20268;-53
2021/12/06 07:58:58;;;;;;;29.53;22.77;;;;;;;1.59;100.00;101168.41;5008017;28;20298;-53
2021/12/06 08:01:26;;;;;;;32.07;22.13;;;;;;;1.63;100.00;101174.59;5003583;28;20376;-54
2021/12/06 08:03:53;;;;;;;38.40;22.60;;;;;;;1.68;100.00;101183.44;5005188;28;20240;-55
2021/12/06 08:06:20;;;;;;;30.57;22.47;;;;;;;1.61;100.00;101181.41;5006725;28;20294;-54
2021/12/06 08:08:46;;;;;;;32.63;21.93;;;;;;;1.52;100.00;101186.22;5010549;28;20232;-54
2021/12/06 08:11:15;;;;;;;27.80;20.07;;;;;;;1.45;100.00;101189.34;5004533;28;20267;-54
2021/12/06 08:13:44;;;;;;;31.20;20.20;;;;;;;1.45;100.00;101189.34;5011072;28;20279;-52
2021/12/06 08:16:12;;;;;;;28.03;20.73;;;;;;;1.55;100.00;101191.53;5006483;28;20286;-55
2021/12/06 08:18:40;;;;;;;30.20;21.23;;;;;;;1.57;100.00;101195.91;5007257;28;20465;-54
2021/12/06 08:21:07;;;;;;;33.17;22.20;;;;;;;1.72;100.00;101190.53;5001844;28;20287;-53
2021/12/06 08:23:34;;;;;;;31.23;22.17;;;;;;;1.67;100.00;101189.44;5007688;28;20250;-53
2021/12/06 08:26:02;;;;;;;32.03;20.13;;;;;;;1.56;100.00;101199.34;5006245;28;20307;-55
2021/12/06 08:28:31;;;;;;;30.10;20.30;;;;;;;1.60;100.00;101196.06;5004370;28;20236;-53
2021/12/06 08:30:57;;;;;;;26.97;20.17;;;;;;;1.70;100.00;101192.16;5002268;28;20221;-53
2021/12/06 08:33:26;;;;;;;26.60;20.30;;;;;;;1.65;100.00;101191.97;5002523;28;20240;-55
2021/12/06 08:35:56;;;;;;;27.67;19.03;;;;;;;1.71;100.00;101198.22;5005192;28;20294;-53
2021/12/06 08:38:25;;;;;;;27.53;19.87;;;;;;;1.74;100.00;101198.34;5007115;28;20260;-53
2021/12/06 08:40:53;;;;;;;24.87;18.40;;;;;;;1.75;100.00;101194.94;5006254;28;20263;-55
2021/12/06 08:43:20;;;;;;;28.27;20.37;;;;;;;1.82;100.00;101194.38;5013271;28;20962;-58
2021/12/06 08:45:50;;;;;;;34.83;19.80;;;;;;;1.75;100.00;101193.22;5014095;28;20228;-52
2021/12/06 08:48:17;;;;;;;26.30;19.03;;;;;;;1.95;100.00;101193.19;5013172;28;20289;-53
2021/12/06 08:50:43;;;;;;;27.57;18.27;;;;;;;1.95;100.00;101193.19;5014285;28;20745;-53
2021/12/06 08:53:11;;;;;;;24.67;17.57;;;;;;;1.95;100.00;101198.34;5014161;28;20299;-53
2021/12/06 08:55:37;;;;;;;27.23;19.50;;;;;;;1.90;100.00;101206.81;5015151;28;20306;-54
2021/12/06 08:58:04;;;;;;;25.30;18.20;;;;;;;1.96;100.00;101213.06;5012551;28;20243;-54
2021/12/06 09:00:35;;;;;;;25.33;17.73;;;;;;;1.91;100.00;101213.75;5010353;28;20232;-55
2021/12/06 09:03:01;;;;;;;26.90;18.73;;;;;;;1.97;100.00;101217.44;5011568;28;20273;-55
2021/12/06 09:05:31;;;;;;;26.53;18.33;;;;;;;1.99;100.00;101220.97;5014048;28;20259;-56
2021/12/06 09:07:58;;;;;;;25.23;18.80;;;;;;;1.96;100.00;101226.88;5010724;28;20255;-54
2021/12/06 09:10:26;;;;;;;31.90;21.23;;;;;;;2.09;100.00;101225.72;5011654;28;20314;-54
2021/12/06 09:12:53;;;;;;;27.60;18.97;;;;;;;2.09;100.00;101233.47;5014313;28;20299;-53
2021/12/06 09:15:21;;;;;;;28.93;20.23;;;;;;;1.99;100.00;101226.13;5003142;28;20236;-51
2021/12/06 09:17:47;;;;;;;27.63;18.90;;;;;;;2.04;100.00;101225.53;5004376;28;20537;-52
2021/12/06 09:20:15;;;;;;;26.47;18.40;;;;;;;2.12;100.00;101223.25;5007179;28;20248;-54
2021/12/06 09:22:43;;;;;;;30.40;19.43;;;;;;;2.18;100.00;101228.69;5004339;28;20236;-55
2021/12/06 09:25:10;;;;;;;26.60;18.33;;;;;;;2.26;100.00;101232.47;5000115;28;20887;-54
2021/12/06 09:27:38;;;;;;;26.33;18.63;;;;;;;2.34;100.00;101231.06;5003884;28;20268;-54
2021/12/06 09:30:07;;;;;;;25.03;16.73;;;;;;;2.38;99.00;101227.75;5006416;28;20236;-54
2021/12/06 09:32:33;;;;;;;25.73;18.73;;;;;;;2.35;99.37;101229.34;5003122;28;20236;-55
2021/12/06 09:35:00;;;;;;;22.70;17.00;;;;;;;2.38;100.00;101232.94;4998600;28;20251;-55
2021/12/06 09:37:26;;;;;;;25.10;18.20;;;;;;;2.49;98.46;101232.47;5006020;28;20266;-54
2021/12/06 09:39:54;;;;;;;21.87;16.40;;;;;;;2.41;99.41;101233.91;5004855;28;20725;-53
2021/12/06 09:42:22;;;;;;;25.53;18.63;;;;;;;2.44;98.78;101241.78;5012497;28;20260;-54
2021/12/06 09:44:49;;;;;;;26.87;17.83;;;;;;;2.38;99.28;101245.88;5010197;28;20615;-57
2021/12/06 09:47:16;;;;;;;24.50;17.90;;;;;;;2.33;98.73;101246.56;5005225;28;20294;-56
2021/12/06 09:49:42;;;;;;;29.67;18.57;;;;;;;2.28;99.68;101242.88;5007092;28;20724;-54
2021/12/06 09:52:10;;;;;;;28.60;18.50;;;;;;;2.22;100.00;101243.53;5002602;28;20272;-54
2021/12/06 09:54:39;;;;;;;26.77;18.03;;;;;;;2.39;100.00;101242.50;5005687;28;20239;-54
2021/12/06 09:57:08;;;;;;;27.00;17.97;;;;;;;2.31;99.21;101243.88;5002381;28;20241;-55
2021/12/06 09:59:37;;;;;;;24.60;17.93;;;;;;;2.35;99.39;101238.03;5005873;28;20264;-55
2021/12/06 10:02:07;;;;;;;25.20;17.37;;;;;;;2.13;99.91;101236.25;4998048;28;20982;-54
2021/12/06 10:04:38;;;;;;;28.07;16.80;;;;;;;2.07;100.00;101236.00;5005947;28;20295;-56
2021/12/06 10:07:07;;;;;;;26.40;17.50;;;;;;;2.13;100.00;101240.53;5005238;28;20247;-54
2021/12/06 10:09:36;;;;;;;20.07;15.53;;;;;;;2.19;100.00;101240.81;5010034;28;20244;-55
2021/12/06 10:12:03;;;;;;;22.07;17.13;;;;;;;2.18;100.00;101236.44;5006763;28;20391;-54
2021/12/06 10:14:30;;;;;;;25.53;16.30;;;;;;;2.11;100.00;101240.50;5005568;28;20240;-54
2021/12/06 10:16:56;;;;;;;20.83;15.43;;;;;;;2.15;100.00;101234.63;4998992;28;20264;-53
2021/12/06 10:19:25;;;;;;;23.57;15.97;;;;;;;2.12;100.00;101233.59;5004660;28;20243;-53
2021/12/06 10:21:52;;;;;;;20.60;15.70;;;;;;;2.21;100.00;101228.81;5003631;28;20793;-55
2021/12/06 10:24:25;;;;;;;22.17;16.07;;;;;;;2.16;100.00;101230.31;5001326;28;20326;-56
2021/12/06 10:27:02;;;;;;;20.93;15.17;;;;;;;2.33;99.84;101224.09;5001390;28;20263;-55
2021/12/06 10:29:35;;;;;;;20.93;14.87;;;;;;;2.30;98.56;101221.41;5005895;28;20236;-55
2021/12/06 10:32:02;;;;;;;19.73;14.83;;;;;;;2.35;99.95;101222.47;5003797;28;20244;-55
2021/12/06 10:34:29;;;;;;;21.43;15.07;;;;;;;2.28;100.00;101220.47;4994625;28;20260;-54
2021/12/06 10:36:56;;;;;;;21.20;14.53;;;;;;;2.28;99.44;101210.09;5004044;28;20760;-54
2021/12/06 10:39:24;;;;;;;22.30;14.67;;;;;;;2.31;99.42;101212.78;5002961;28;20243;-55
2021/12/06 10:41:51;;;;;;;24.00;16.03;;;;;;;2.38;98.29;101212.22;4986276;28;20250;-55
2021/12/06 10:44:18;;;;;;;20.83;14.97;;;;;;;2.32;98.25;101211.09;4985870;28;20269;-54
2021/12/06 10:46:48;;;;;;;22.90;15.53;;;;;;;2.42;100.00;101201.97;4984815;28;20300;-55
2021/12/06 10:49:17;;;;;;;22.60;17.40;;;;;;;2.36;99.17;101198.31;4992350;28;20424;-55
2021/12/06 10:51:45;;;;;;;20.90;14.57;;;;;;;2.47;100.00;101200.47;4984176;28;20282;-55
2021/12/06 10:54:19;;;;;;;19.50;14.23;;;;;;;2.50;100.00;101195.41;5004042;28;20237;-56
2021/12/06 10:56:47;;;;;;;20.80;13.70;;;;;;;2.61;99.38;101194.09;4988742;28;20229;-56
2021/12/06 10:59:16;;;;;;;16.77;13.33;;;;;;;2.56;99.63;101190.44;5004408;28;20244;-56
2021/12/06 11:01:43;;;;;;;21.57;13.77;;;;;;;2.79;99.66;101192.19;5002520;28;20257;-54
2021/12/06 11:04:12;;;;;;;16.87;12.83;;;;;;;2.72;99.15;101194.50;5010223;28;20267;-55
2021/12/06 11:06:43;;;;;;;21.67;14.90;;;;;;;2.60;97.93;101192.34;5013436;28;20263;-56
2021/12/06 11:09:13;;;;;;;24.13;18.17;;;;;;;2.66;98.80;101187.38;5007890;28;20440;-55
2021/12/06 11:11:41;;;;;;;24.70;15.00;;;;;;;2.55;100.00;101194.75;5007954;28;20229;-55
2021/12/06 11:14:09;;;;;;;19.87;14.40;;;;;;;3.03;98.93;101183.56;5008303;28;20236;-55
2021/12/06 11:16:38;;;;;;;18.77;12.60;;;;;;;3.00;98.41;101188.66;5006814;28;20324;-56
2021/12/06 11:19:06;;;;;;;23.27;15.50;;;;;;;2.60;96.29;101176.78;5008023;28;20351;-56